Copper Queen, Arizona
Current Conditions -  °F | °C
As of 8:56 PM on Saturday 22 Nov 2014 (Local Time) from KDUG Reporting Station
Clear Clear  
Wind Chill: 37°   Ceiling: Unl
Heat Index: 42°   Visibility: 10mi
Dew Point: 22°   Wind: 8mph
Humidity: 45%   Direction: 10°N
Pressure: 30.04"   Gusts: NA
Location:  31.4799°N, 109.96°W
Report Text: KDUG 230356Z AUTO 01007KT 10SM CLR 06/M06 A3004 RMK AO2 SLP153 T00561056
Loading
Personal Weather Stations






























Interactive Weather Map New forecast layout! Learn more

10-Day Weather Forecast

Advertisements
Track Severe Weather on mobile